sensor_id;sensor_type;location;lat;lon;timestamp;temperature;humidity
21608;DHT22;10966;51.076;3.782;2022-07-30T00:02:05;17.70;99.90
21608;DHT22;10966;51.076;3.782;2022-07-30T00:04:30;17.70;99.90
21608;DHT22;10966;51.076;3.782;2022-07-30T00:06:59;17.80;99.90
21608;DHT22;10966;51.076;3.782;2022-07-30T00:09:25;17.80;99.90
21608;DHT22;10966;51.076;3.782;2022-07-30T00:11:50;17.80;99.90
21608;DHT22;10966;51.076;3.782;2022-07-30T00:14:16;17.70;99.90
21608;DHT22;10966;51.076;3.782;2022-07-30T00:16:42;17.60;99.90
21608;DHT22;10966;51.076;3.782;2022-07-30T00:19:07;17.50;99.90
21608;DHT22;10966;51.076;3.782;2022-07-30T00:21:34;17.50;99.90
21608;DHT22;10966;51.076;3.782;2022-07-30T00:23:59;17.50;99.90
21608;DHT22;10966;51.076;3.782;2022-07-30T00:26:25;17.50;99.90
21608;DHT22;10966;51.076;3.782;2022-07-30T00:28:51;17.50;99.90
21608;DHT22;10966;51.076;3.782;2022-07-30T00:31:16;17.50;99.90
21608;DHT22;10966;51.076;3.782;2022-07-30T00:33:42;17.60;99.90
21608;DHT22;10966;51.076;3.782;2022-07-30T00:36:08;17.60;99.90
21608;DHT22;10966;51.076;3.782;2022-07-30T00:38:33;17.50;99.90
21608;DHT22;10966;51.076;3.782;2022-07-30T00:40:59;17.50;99.90
21608;DHT22;10966;51.076;3.782;2022-07-30T00:43:25;17.50;99.90
21608;DHT22;10966;51.076;3.782;2022-07-30T00:45:50;17.50;99.90
21608;DHT22;10966;51.076;3.782;2022-07-30T00:48:16;17.40;99.90
21608;DHT22;10966;51.076;3.782;2022-07-30T00:50:42;17.50;99.90
21608;DHT22;10966;51.076;3.782;2022-07-30T00:53:07;17.40;99.90
21608;DHT22;10966;51.076;3.782;2022-07-30T00:55:34;17.40;99.90
21608;DHT22;10966;51.076;3.782;2022-07-30T00:58:00;17.30;99.90
21608;DHT22;10966;51.076;3.782;2022-07-30T01:00:26;17.00;99.90
21608;DHT22;10966;51.076;3.782;2022-07-30T01:02:52;16.70;99.90
21608;DHT22;10966;51.076;3.782;2022-07-30T01:05:18;16.40;99.90
21608;DHT22;10966;51.076;3.782;2022-07-30T01:07:44;16.30;99.90
21608;DHT22;10966;51.076;3.782;2022-07-30T01:10:12;16.30;99.90
21608;DHT22;10966;51.076;3.782;2022-07-30T01:12:38;16.40;99.90
21608;DHT22;10966;51.076;3.782;2022-07-30T01:15:06;16.30;99.90
21608;DHT22;10966;51.076;3.782;2022-07-30T01:17:34;16.30;99.90
21608;DHT22;10966;51.076;3.782;2022-07-30T01:20:10;16.30;99.90
21608;DHT22;10966;51.076;3.782;2022-07-30T01:22:57;16.30;99.90
21608;DHT22;10966;51.076;3.782;2022-07-30T01:28:03;16.20;99.90
21608;DHT22;10966;51.076;3.782;2022-07-30T01:30:33;16.10;99.90
21608;DHT22;10966;51.076;3.782;2022-07-30T01:32:59;16.10;99.90
21608;DHT22;10966;51.076;3.782;2022-07-30T01:35:27;16.10;99.90
21608;DHT22;10966;51.076;3.782;2022-07-30T01:37:54;16.20;99.90
21608;DHT22;10966;51.076;3.782;2022-07-30T01:40:22;16.20;99.90
21608;DHT22;10966;51.076;3.782;2022-07-30T01:42:51;16.20;99.90
21608;DHT22;10966;51.076;3.782;2022-07-30T01:45:23;16.10;99.90
21608;DHT22;10966;51.076;3.782;2022-07-30T01:47:51;16.10;99.90
21608;DHT22;10966;51.076;3.782;2022-07-30T01:50:19;16.00;99.90
21608;DHT22;10966;51.076;3.782;2022-07-30T01:52:48;16.00;99.90
21608;DHT22;10966;51.076;3.782;2022-07-30T01:55:19;16.00;99.90
21608;DHT22;10966;51.076;3.782;2022-07-30T01:57:47;16.00;99.90
21608;DHT22;10966;51.076;3.782;2022-07-30T02:00:13;16.10;99.90
21608;DHT22;10966;51.076;3.782;2022-07-30T02:02:40;16.10;99.90
21608;DHT22;10966;51.076;3.782;2022-07-30T02:05:09;16.10;99.90
21608;DHT22;10966;51.076;3.782;2022-07-30T02:10:32;16.30;99.90
21608;DHT22;10966;51.076;3.782;2022-07-30T02:12:59;16.30;99.90
21608;DHT22;10966;51.076;3.782;2022-07-30T02:18:35;16.80;99.90
21608;DHT22;10966;51.076;3.782;2022-07-30T02:21:05;16.50;99.90
21608;DHT22;10966;51.076;3.782;2022-07-30T02:23:37;16.40;99.90
21608;DHT22;10966;51.076;3.782;2022-07-30T02:26:04;16.40;99.90
21608;DHT22;10966;51.076;3.782;2022-07-30T02:28:35;16.30;99.90
21608;DHT22;10966;51.076;3.782;2022-07-30T02:31:04;16.10;99.90
21608;DHT22;10966;51.076;3.782;2022-07-30T02:33:35;16.20;99.90
21608;DHT22;10966;51.076;3.782;2022-07-30T02:36:02;16.10;99.90
21608;DHT22;10966;51.076;3.782;2022-07-30T02:38:28;16.10;99.90
21608;DHT22;10966;51.076;3.782;2022-07-30T02:40:56;16.30;99.90
21608;DHT22;10966;51.076;3.782;2022-07-30T02:43:24;16.50;99.90
21608;DHT22;10966;51.076;3.782;2022-07-30T02:45:51;16.60;99.90
21608;DHT22;10966;51.076;3.782;2022-07-30T02:48:20;16.60;99.90
21608;DHT22;10966;51.076;3.782;2022-07-30T02:50:48;16.50;99.90
21608;DHT22;10966;51.076;3.782;2022-07-30T02:53:15;16.60;99.90
21608;DHT22;10966;51.076;3.782;2022-07-30T02:55:44;16.60;99.90
21608;DHT22;10966;51.076;3.782;2022-07-30T02:58:15;16.40;99.90
21608;DHT22;10966;51.076;3.782;2022-07-30T03:00:42;16.40;99.90
21608;DHT22;10966;51.076;3.782;2022-07-30T03:03:09;16.40;99.90
21608;DHT22;10966;51.076;3.782;2022-07-30T03:05:37;16.30;99.90
21608;DHT22;10966;51.076;3.782;2022-07-30T03:08:04;16.40;99.90
21608;DHT22;10966;51.076;3.782;2022-07-30T03:10:30;16.50;99.90
21608;DHT22;10966;51.076;3.782;2022-07-30T03:12:57;16.60;99.90
21608;DHT22;10966;51.076;3.782;2022-07-30T03:15:24;16.60;99.90
21608;DHT22;10966;51.076;3.782;2022-07-30T03:17:52;16.60;99.90
21608;DHT22;10966;51.076;3.782;2022-07-30T03:20:21;16.50;99.90
21608;DHT22;10966;51.076;3.782;2022-07-30T03:22:50;16.50;99.90
21608;DHT22;10966;51.076;3.782;2022-07-30T03:25:21;16.60;99.90
21608;DHT22;10966;51.076;3.782;2022-07-30T03:27:49;16.60;99.90
21608;DHT22;10966;51.076;3.782;2022-07-30T03:30:15;16.50;99.90
21608;DHT22;10966;51.076;3.782;2022-07-30T03:32:42;16.40;99.90
21608;DHT22;10966;51.076;3.782;2022-07-30T03:35:09;16.40;99.90
21608;DHT22;10966;51.076;3.782;2022-07-30T03:37:36;16.50;99.90
21608;DHT22;10966;51.076;3.782;2022-07-30T03:40:04;16.60;99.90
21608;DHT22;10966;51.076;3.782;2022-07-30T03:42:31;16.70;99.90
21608;DHT22;10966;51.076;3.782;2022-07-30T03:44:59;16.60;99.90
21608;DHT22;10966;51.076;3.782;2022-07-30T03:47:26;16.50;99.90
21608;DHT22;10966;51.076;3.782;2022-07-30T03:49:52;16.60;99.90
21608;DHT22;10966;51.076;3.782;2022-07-30T03:52:18;16.70;99.90
21608;DHT22;10966;51.076;3.782;2022-07-30T03:54:45;16.70;99.90
21608;DHT22;10966;51.076;3.782;2022-07-30T03:57:11;16.70;99.90
21608;DHT22;10966;51.076;3.782;2022-07-30T03:59:38;16.70;99.90
21608;DHT22;10966;51.076;3.782;2022-07-30T04:02:03;16.70;99.90
21608;DHT22;10966;51.076;3.782;2022-07-30T04:04:29;16.80;99.90
21608;DHT22;10966;51.076;3.782;2022-07-30T04:06:58;16.80;99.90
21608;DHT22;10966;51.076;3.782;2022-07-30T04:09:24;16.50;99.90
21608;DHT22;10966;51.076;3.782;2022-07-30T04:11:50;16.50;99.90
21608;DHT22;10966;51.076;3.782;2022-07-30T04:14:16;16.40;99.90
21608;DHT22;10966;51.076;3.782;2022-07-30T04:16:58;16.40;99.90
21608;DHT22;10966;51.076;3.782;2022-07-30T04:19:29;16.20;99.90
21608;DHT22;10966;51.076;3.782;2022-07-30T04:21:56;16.00;99.90
21608;DHT22;10966;51.076;3.782;2022-07-30T04:24:24;16.00;99.90
21608;DHT22;10966;51.076;3.782;2022-07-30T04:26:50;15.80;99.90
21608;DHT22;10966;51.076;3.782;2022-07-30T04:29:17;15.90;99.90
21608;DHT22;10966;51.076;3.782;2022-07-30T04:31:43;16.00;99.90
21608;DHT22;10966;51.076;3.782;2022-07-30T04:34:12;16.20;99.90
21608;DHT22;10966;51.076;3.782;2022-07-30T04:36:41;16.20;99.90
21608;DHT22;10966;51.076;3.782;2022-07-30T04:39:07;16.30;99.90
21608;DHT22;10966;51.076;3.782;2022-07-30T04:41:34;16.50;99.90
21608;DHT22;10966;51.076;3.782;2022-07-30T04:44:00;16.50;99.90
21608;DHT22;10966;51.076;3.782;2022-07-30T04:46:25;16.60;99.90
21608;DHT22;10966;51.076;3.782;2022-07-30T04:48:51;16.60;99.90
21608;DHT22;10966;51.076;3.782;2022-07-30T04:51:32;16.50;99.90
21608;DHT22;10966;51.076;3.782;2022-07-30T04:53:59;16.60;99.90
21608;DHT22;10966;51.076;3.782;2022-07-30T04:56:27;16.70;99.90
21608;DHT22;10966;51.076;3.782;2022-07-30T04:58:55;16.70;99.90
21608;DHT22;10966;51.076;3.782;2022-07-30T05:01:26;16.80;99.90
21608;DHT22;10966;51.076;3.782;2022-07-30T05:03:54;17.00;99.90
21608;DHT22;10966;51.076;3.782;2022-07-30T05:06:20;17.00;99.90
21608;DHT22;10966;51.076;3.782;2022-07-30T05:08:46;17.10;99.90
21608;DHT22;10966;51.076;3.782;2022-07-30T05:11:13;17.20;99.90
21608;DHT22;10966;51.076;3.782;2022-07-30T05:13:43;17.30;99.90
21608;DHT22;10966;51.076;3.782;2022-07-30T05:16:09;17.30;99.90
21608;DHT22;10966;51.076;3.782;2022-07-30T05:18:36;17.40;99.90
21608;DHT22;10966;51.076;3.782;2022-07-30T05:21:03;17.50;99.90
21608;DHT22;10966;51.076;3.782;2022-07-30T05:23:29;17.40;99.90
21608;DHT22;10966;51.076;3.782;2022-07-30T05:25:55;17.60;99.90
21608;DHT22;10966;51.076;3.782;2022-07-30T05:28:20;17.70;99.90
21608;DHT22;10966;51.076;3.782;2022-07-30T05:30:47;17.70;99.90
21608;DHT22;10966;51.076;3.782;2022-07-30T05:33:13;17.50;99.90
21608;DHT22;10966;51.076;3.782;2022-07-30T05:35:39;17.50;99.90
21608;DHT22;10966;51.076;3.782;2022-07-30T05:38:04;17.50;99.90
21608;DHT22;10966;51.076;3.782;2022-07-30T05:40:30;17.50;99.90
21608;DHT22;10966;51.076;3.782;2022-07-30T05:42:56;17.70;99.90
21608;DHT22;10966;51.076;3.782;2022-07-30T05:45:22;17.80;99.90
21608;DHT22;10966;51.076;3.782;2022-07-30T05:47:47;17.80;99.90
21608;DHT22;10966;51.076;3.782;2022-07-30T05:50:13;17.80;99.90
21608;DHT22;10966;51.076;3.782;2022-07-30T05:52:38;17.70;99.90
21608;DHT22;10966;51.076;3.782;2022-07-30T05:55:04;17.70;99.90
21608;DHT22;10966;51.076;3.782;2022-07-30T05:57:33;17.80;99.90
21608;DHT22;10966;51.076;3.782;2022-07-30T06:00:00;18.00;99.90
21608;DHT22;10966;51.076;3.782;2022-07-30T06:02:25;18.00;99.90
21608;DHT22;10966;51.076;3.782;2022-07-30T06:04:52;18.00;99.90
21608;DHT22;10966;51.076;3.782;2022-07-30T06:07:18;18.00;99.90
21608;DHT22;10966;51.076;3.782;2022-07-30T06:09:43;18.00;99.90
21608;DHT22;10966;51.076;3.782;2022-07-30T06:12:09;18.10;99.90
21608;DHT22;10966;51.076;3.782;2022-07-30T06:14:35;18.20;99.90
21608;DHT22;10966;51.076;3.782;2022-07-30T06:17:00;18.30;99.90
21608;DHT22;10966;51.076;3.782;2022-07-30T06:19:26;18.30;99.90
21608;DHT22;10966;51.076;3.782;2022-07-30T06:21:52;18.20;99.90
21608;DHT22;10966;51.076;3.782;2022-07-30T06:24:17;18.10;99.90
21608;DHT22;10966;51.076;3.782;2022-07-30T06:26:43;18.00;99.90
21608;DHT22;10966;51.076;3.782;2022-07-30T06:29:08;18.30;99.90
21608;DHT22;10966;51.076;3.782;2022-07-30T06:31:34;18.40;99.90
21608;DHT22;10966;51.076;3.782;2022-07-30T06:34:02;18.30;99.90
21608;DHT22;10966;51.076;3.782;2022-07-30T06:36:28;18.50;99.90
21608;DHT22;10966;51.076;3.782;2022-07-30T06:38:54;18.80;99.90
21608;DHT22;10966;51.076;3.782;2022-07-30T06:41:20;19.20;99.90
21608;DHT22;10966;51.076;3.782;2022-07-30T06:43:46;19.40;99.90
21608;DHT22;10966;51.076;3.782;2022-07-30T06:46:11;19.50;99.90
21608;DHT22;10966;51.076;3.782;2022-07-30T06:48:37;19.60;99.90
21608;DHT22;10966;51.076;3.782;2022-07-30T06:51:03;19.70;99.90
21608;DHT22;10966;51.076;3.782;2022-07-30T06:53:28;19.30;99.90
21608;DHT22;10966;51.076;3.782;2022-07-30T06:55:54;19.20;99.90
21608;DHT22;10966;51.076;3.782;2022-07-30T06:58:19;19.30;99.90
21608;DHT22;10966;51.076;3.782;2022-07-30T07:00:45;19.60;99.90
21608;DHT22;10966;51.076;3.782;2022-07-30T07:03:11;20.00;99.90
21608;DHT22;10966;51.076;3.782;2022-07-30T07:05:37;20.10;99.90
21608;DHT22;10966;51.076;3.782;2022-07-30T07:08:02;20.30;99.90
21608;DHT22;10966;51.076;3.782;2022-07-30T07:10:28;20.60;99.90
21608;DHT22;10966;51.076;3.782;2022-07-30T07:12:54;20.80;99.90
21608;DHT22;10966;51.076;3.782;2022-07-30T07:15:20;20.90;99.90
21608;DHT22;10966;51.076;3.782;2022-07-30T07:17:46;21.00;99.90
21608;DHT22;10966;51.076;3.782;2022-07-30T07:20:12;21.20;99.90
21608;DHT22;10966;51.076;3.782;2022-07-30T07:22:38;21.40;99.90
21608;DHT22;10966;51.076;3.782;2022-07-30T07:25:04;21.50;99.90
21608;DHT22;10966;51.076;3.782;2022-07-30T07:27:30;21.70;99.90
21608;DHT22;10966;51.076;3.782;2022-07-30T07:29:56;21.60;99.90
21608;DHT22;10966;51.076;3.782;2022-07-30T07:32:21;21.60;99.90
21608;DHT22;10966;51.076;3.782;2022-07-30T07:34:47;21.90;99.90
21608;DHT22;10966;51.076;3.782;2022-07-30T07:37:13;22.10;99.90
21608;DHT22;10966;51.076;3.782;2022-07-30T07:39:40;22.40;99.90
21608;DHT22;10966;51.076;3.782;2022-07-30T07:42:06;22.70;99.90
21608;DHT22;10966;51.076;3.782;2022-07-30T07:44:31;22.80;99.90
21608;DHT22;10966;51.076;3.782;2022-07-30T07:46:57;22.80;99.90
21608;DHT22;10966;51.076;3.782;2022-07-30T07:49:23;22.60;99.90
21608;DHT22;10966;51.076;3.782;2022-07-30T07:51:48;22.70;99.90
21608;DHT22;10966;51.076;3.782;2022-07-30T07:54:15;22.80;99.90
21608;DHT22;10966;51.076;3.782;2022-07-30T07:56:40;23.00;99.90
21608;DHT22;10966;51.076;3.782;2022-07-30T07:59:06;23.20;99.90
21608;DHT22;10966;51.076;3.782;2022-07-30T08:01:32;23.30;99.90
21608;DHT22;10966;51.076;3.782;2022-07-30T08:03:58;23.60;99.90
21608;DHT22;10966;51.076;3.782;2022-07-30T08:06:24;23.80;99.90
21608;DHT22;10966;51.076;3.782;2022-07-30T08:08:50;23.70;99.90
21608;DHT22;10966;51.076;3.782;2022-07-30T08:11:16;23.90;99.90
21608;DHT22;10966;51.076;3.782;2022-07-30T08:13:42;24.00;99.90
21608;DHT22;10966;51.076;3.782;2022-07-30T08:16:07;24.00;99.90
21608;DHT22;10966;51.076;3.782;2022-07-30T08:18:36;23.90;99.90
21608;DHT22;10966;51.076;3.782;2022-07-30T08:21:02;23.60;99.90
21608;DHT22;10966;51.076;3.782;2022-07-30T08:23:28;23.60;99.90
21608;DHT22;10966;51.076;3.782;2022-07-30T08:25:56;23.60;99.90
21608;DHT22;10966;51.076;3.782;2022-07-30T08:28:22;23.40;99.90
21608;DHT22;10966;51.076;3.782;2022-07-30T08:30:48;23.20;99.90
21608;DHT22;10966;51.076;3.782;2022-07-30T08:33:14;23.30;99.90
21608;DHT22;10966;51.076;3.782;2022-07-30T08:35:40;23.30;99.90
21608;DHT22;10966;51.076;3.782;2022-07-30T08:38:06;23.30;99.90
21608;DHT22;10966;51.076;3.782;2022-07-30T08:40:33;23.30;99.90
21608;DHT22;10966;51.076;3.782;2022-07-30T08:43:02;23.30;99.90
21608;DHT22;10966;51.076;3.782;2022-07-30T08:45:29;23.60;99.90
21608;DHT22;10966;51.076;3.782;2022-07-30T08:47:56;23.60;99.90
21608;DHT22;10966;51.076;3.782;2022-07-30T08:50:24;23.90;99.90
21608;DHT22;10966;51.076;3.782;2022-07-30T08:52:49;24.20;99.90
21608;DHT22;10966;51.076;3.782;2022-07-30T08:55:16;24.10;99.90
21608;DHT22;10966;51.076;3.782;2022-07-30T08:57:42;24.30;99.90
21608;DHT22;10966;51.076;3.782;2022-07-30T09:00:08;24.40;99.90
21608;DHT22;10966;51.076;3.782;2022-07-30T09:02:35;24.90;99.90
21608;DHT22;10966;51.076;3.782;2022-07-30T09:05:00;25.10;99.90
21608;DHT22;10966;51.076;3.782;2022-07-30T09:07:26;25.10;99.90
21608;DHT22;10966;51.076;3.782;2022-07-30T09:09:52;25.00;99.90
21608;DHT22;10966;51.076;3.782;2022-07-30T09:12:37;24.60;99.90
21608;DHT22;10966;51.076;3.782;2022-07-30T09:17:55;24.70;99.90
21608;DHT22;10966;51.076;3.782;2022-07-30T09:20:29;24.60;99.90
21608;DHT22;10966;51.076;3.782;2022-07-30T09:23:03;25.00;99.90
21608;DHT22;10966;51.076;3.782;2022-07-30T09:25:39;25.20;99.90
21608;DHT22;10966;51.076;3.782;2022-07-30T09:28:06;25.30;99.90
21608;DHT22;10966;51.076;3.782;2022-07-30T09:33:10;26.20;99.90
21608;DHT22;10966;51.076;3.782;2022-07-30T09:35:36;26.50;99.90
21608;DHT22;10966;51.076;3.782;2022-07-30T09:38:02;26.40;99.90
21608;DHT22;10966;51.076;3.782;2022-07-30T09:40:31;26.40;99.90
21608;DHT22;10966;51.076;3.782;2022-07-30T09:43:08;26.30;99.90
21608;DHT22;10966;51.076;3.782;2022-07-30T09:45:35;26.50;99.90
21608;DHT22;10966;51.076;3.782;2022-07-30T09:48:01;25.60;99.90
21608;DHT22;10966;51.076;3.782;2022-07-30T09:50:27;25.20;99.90
21608;DHT22;10966;51.076;3.782;2022-07-30T09:52:54;25.70;99.90
21608;DHT22;10966;51.076;3.782;2022-07-30T09:55:33;26.00;99.90
21608;DHT22;10966;51.076;3.782;2022-07-30T09:58:04;26.50;99.90
21608;DHT22;10966;51.076;3.782;2022-07-30T10:00:32;26.50;99.90
21608;DHT22;10966;51.076;3.782;2022-07-30T10:02:58;26.40;99.90
21608;DHT22;10966;51.076;3.782;2022-07-30T10:05:27;26.70;99.90
21608;DHT22;10966;51.076;3.782;2022-07-30T10:07:59;27.00;99.90
21608;DHT22;10966;51.076;3.782;2022-07-30T10:10:28;26.80;99.90
21608;DHT22;10966;51.076;3.782;2022-07-30T10:12:59;26.60;99.90
21608;DHT22;10966;51.076;3.782;2022-07-30T10:15:33;26.60;99.90
21608;DHT22;10966;51.076;3.782;2022-07-30T10:18:00;26.90;99.90
21608;DHT22;10966;51.076;3.782;2022-07-30T10:20:26;26.60;99.90
21608;DHT22;10966;51.076;3.782;2022-07-30T10:22:53;26.90;99.90
21608;DHT22;10966;51.076;3.782;2022-07-30T10:25:20;27.30;99.90
21608;DHT22;10966;51.076;3.782;2022-07-30T10:27:46;27.40;99.90
21608;DHT22;10966;51.076;3.782;2022-07-30T10:30:12;26.80;99.90
21608;DHT22;10966;51.076;3.782;2022-07-30T10:32:39;27.10;99.90
21608;DHT22;10966;51.076;3.782;2022-07-30T10:35:07;26.80;99.90
21608;DHT22;10966;51.076;3.782;2022-07-30T10:37:35;26.40;99.90
21608;DHT22;10966;51.076;3.782;2022-07-30T10:45:16;26.30;99.90
21608;DHT22;10966;51.076;3.782;2022-07-30T10:47:48;26.10;99.90
21608;DHT22;10966;51.076;3.782;2022-07-30T10:50:19;26.10;99.90
21608;DHT22;10966;51.076;3.782;2022-07-30T10:55:23;26.30;99.90
21608;DHT22;10966;51.076;3.782;2022-07-30T10:58:06;25.80;99.90
21608;DHT22;10966;51.076;3.782;2022-07-30T11:00:34;25.80;99.90
21608;DHT22;10966;51.076;3.782;2022-07-30T11:03:20;25.70;99.90
21608;DHT22;10966;51.076;3.782;2022-07-30T11:05:49;26.10;99.90
21608;DHT22;10966;51.076;3.782;2022-07-30T11:08:39;26.20;99.90
21608;DHT22;10966;51.076;3.782;2022-07-30T11:13:59;26.20;99.90
21608;DHT22;10966;51.076;3.782;2022-07-30T11:19:16;26.10;99.90
21608;DHT22;10966;51.076;3.782;2022-07-30T11:21:45;26.50;99.90
21608;DHT22;10966;51.076;3.782;2022-07-30T11:24:44;27.10;99.90
21608;DHT22;10966;51.076;3.782;2022-07-30T11:27:33;27.50;99.90
21608;DHT22;10966;51.076;3.782;2022-07-30T11:29:59;27.60;99.10
21608;DHT22;10966;51.076;3.782;2022-07-30T11:32:33;27.50;98.60
21608;DHT22;10966;51.076;3.782;2022-07-30T11:35:24;27.20;98.60
21608;DHT22;10966;51.076;3.782;2022-07-30T11:38:10;27.50;97.20
21608;DHT22;10966;51.076;3.782;2022-07-30T11:43:31;27.00;98.20
21608;DHT22;10966;51.076;3.782;2022-07-30T11:46:16;27.40;96.90
21608;DHT22;10966;51.076;3.782;2022-07-30T11:48:58;27.80;96.70
21608;DHT22;10966;51.076;3.782;2022-07-30T11:51:25;28.20;96.00
21608;DHT22;10966;51.076;3.782;2022-07-30T11:54:05;28.80;95.70
21608;DHT22;10966;51.076;3.782;2022-07-30T11:56:32;29.40;94.90
21608;DHT22;10966;51.076;3.782;2022-07-30T11:59:02;30.20;92.80
21608;DHT22;10966;51.076;3.782;2022-07-30T12:01:28;30.00;92.00
21608;DHT22;10966;51.076;3.782;2022-07-30T12:03:55;29.70;91.50
21608;DHT22;10966;51.076;3.782;2022-07-30T12:06:22;29.40;91.40
21608;DHT22;10966;51.076;3.782;2022-07-30T12:08:51;28.80;91.70
21608;DHT22;10966;51.076;3.782;2022-07-30T12:11:17;28.20;92.10
21608;DHT22;10966;51.076;3.782;2022-07-30T12:13:55;28.40;93.40
21608;DHT22;10966;51.076;3.782;2022-07-30T12:16:21;29.50;91.70
21608;DHT22;10966;51.076;3.782;2022-07-30T12:18:47;30.10;90.30
21608;DHT22;10966;51.076;3.782;2022-07-30T12:21:13;30.60;88.50
21608;DHT22;10966;51.076;3.782;2022-07-30T12:23:40;31.20;88.80
21608;DHT22;10966;51.076;3.782;2022-07-30T12:26:18;31.30;84.60
21608;DHT22;10966;51.076;3.782;2022-07-30T12:28:44;31.20;83.10
21608;DHT22;10966;51.076;3.782;2022-07-30T12:31:14;31.00;81.90
21608;DHT22;10966;51.076;3.782;2022-07-30T12:33:41;30.80;83.60
21608;DHT22;10966;51.076;3.782;2022-07-30T12:36:07;31.50;82.30
21608;DHT22;10966;51.076;3.782;2022-07-30T12:38:45;31.90;77.60
21608;DHT22;10966;51.076;3.782;2022-07-30T12:41:13;32.20;75.70
21608;DHT22;10966;51.076;3.782;2022-07-30T12:46:24;32.60;73.40
21608;DHT22;10966;51.076;3.782;2022-07-30T12:49:02;32.60;72.80
21608;DHT22;10966;51.076;3.782;2022-07-30T12:51:30;32.80;72.60
21608;DHT22;10966;51.076;3.782;2022-07-30T12:54:01;32.10;73.20
21608;DHT22;10966;51.076;3.782;2022-07-30T12:56:38;31.80;75.60
21608;DHT22;10966;51.076;3.782;2022-07-30T12:59:04;31.10;74.60
21608;DHT22;10966;51.076;3.782;2022-07-30T13:01:44;30.30;76.20
21608;DHT22;10966;51.076;3.782;2022-07-30T13:04:11;30.40;76.30
21608;DHT22;10966;51.076;3.782;2022-07-30T13:06:37;30.60;77.00
21608;DHT22;10966;51.076;3.782;2022-07-30T13:09:05;31.00;74.20
21608;DHT22;10966;51.076;3.782;2022-07-30T13:11:42;30.50;72.80
21608;DHT22;10966;51.076;3.782;2022-07-30T13:14:09;29.90;72.60
21608;DHT22;10966;51.076;3.782;2022-07-30T13:16:37;30.60;74.20
21608;DHT22;10966;51.076;3.782;2022-07-30T13:19:07;30.90;75.20
21608;DHT22;10966;51.076;3.782;2022-07-30T13:21:36;30.50;75.30
21608;DHT22;10966;51.076;3.782;2022-07-30T13:24:03;30.90;74.50
21608;DHT22;10966;51.076;3.782;2022-07-30T13:26:29;30.70;73.00
21608;DHT22;10966;51.076;3.782;2022-07-30T13:28:55;30.80;72.50
21608;DHT22;10966;51.076;3.782;2022-07-30T13:31:21;31.20;70.50
21608;DHT22;10966;51.076;3.782;2022-07-30T13:33:49;31.50;71.90
21608;DHT22;10966;51.076;3.782;2022-07-30T13:36:15;32.00;74.50
21608;DHT22;10966;51.076;3.782;2022-07-30T13:38:40;31.90;71.50
21608;DHT22;10966;51.076;3.782;2022-07-30T13:41:07;32.30;69.10
21608;DHT22;10966;51.076;3.782;2022-07-30T13:43:32;33.10;67.80
21608;DHT22;10966;51.076;3.782;2022-07-30T13:45:59;33.30;65.50
21608;DHT22;10966;51.076;3.782;2022-07-30T13:48:26;31.80;66.70
21608;DHT22;10966;51.076;3.782;2022-07-30T13:50:52;31.50;68.50
21608;DHT22;10966;51.076;3.782;2022-07-30T13:53:17;31.50;68.20
21608;DHT22;10966;51.076;3.782;2022-07-30T13:55:43;32.10;67.40
21608;DHT22;10966;51.076;3.782;2022-07-30T13:58:16;32.40;67.10
21608;DHT22;10966;51.076;3.782;2022-07-30T14:00:42;32.70;66.50
21608;DHT22;10966;51.076;3.782;2022-07-30T14:03:10;33.00;66.20
21608;DHT22;10966;51.076;3.782;2022-07-30T14:05:36;33.10;64.60
21608;DHT22;10966;51.076;3.782;2022-07-30T14:08:04;32.70;65.40
21608;DHT22;10966;51.076;3.782;2022-07-30T14:10:30;32.60;66.10
21608;DHT22;10966;51.076;3.782;2022-07-30T14:12:57;32.70;65.00
21608;DHT22;10966;51.076;3.782;2022-07-30T14:15:25;32.20;65.40
21608;DHT22;10966;51.076;3.782;2022-07-30T14:17:51;31.80;65.90
21608;DHT22;10966;51.076;3.782;2022-07-30T14:20:17;32.00;65.60
21608;DHT22;10966;51.076;3.782;2022-07-30T14:22:44;31.30;64.60
21608;DHT22;10966;51.076;3.782;2022-07-30T14:25:10;31.40;65.60
21608;DHT22;10966;51.076;3.782;2022-07-30T14:27:36;31.50;67.60
21608;DHT22;10966;51.076;3.782;2022-07-30T14:30:03;31.40;66.50
21608;DHT22;10966;51.076;3.782;2022-07-30T14:32:30;31.60;65.90
21608;DHT22;10966;51.076;3.782;2022-07-30T14:34:55;31.50;65.90
21608;DHT22;10966;51.076;3.782;2022-07-30T14:37:21;31.30;66.10
21608;DHT22;10966;51.076;3.782;2022-07-30T14:39:47;31.40;66.00
21608;DHT22;10966;51.076;3.782;2022-07-30T14:42:12;31.20;66.10
21608;DHT22;10966;51.076;3.782;2022-07-30T14:44:38;31.50;65.50
21608;DHT22;10966;51.076;3.782;2022-07-30T14:47:04;31.40;66.20
21608;DHT22;10966;51.076;3.782;2022-07-30T14:49:30;30.70;65.90
21608;DHT22;10966;51.076;3.782;2022-07-30T14:51:55;30.90;67.50
21608;DHT22;10966;51.076;3.782;2022-07-30T14:54:21;30.40;67.30
21608;DHT22;10966;51.076;3.782;2022-07-30T14:56:47;29.90;68.10
21608;DHT22;10966;51.076;3.782;2022-07-30T14:59:13;29.40;68.00
21608;DHT22;10966;51.076;3.782;2022-07-30T15:01:39;28.70;70.00
21608;DHT22;10966;51.076;3.782;2022-07-30T15:04:07;28.60;72.50
21608;DHT22;10966;51.076;3.782;2022-07-30T15:06:35;28.50;72.00
21608;DHT22;10966;51.076;3.782;2022-07-30T15:09:02;28.50;71.60
21608;DHT22;10966;51.076;3.782;2022-07-30T15:11:27;28.40;71.20
21608;DHT22;10966;51.076;3.782;2022-07-30T15:13:53;28.50;71.50
21608;DHT22;10966;51.076;3.782;2022-07-30T15:16:19;28.70;72.00
21608;DHT22;10966;51.076;3.782;2022-07-30T15:18:45;28.90;71.50
21608;DHT22;10966;51.076;3.782;2022-07-30T15:21:11;29.40;72.50
21608;DHT22;10966;51.076;3.782;2022-07-30T15:23:37;29.80;71.60
21608;DHT22;10966;51.076;3.782;2022-07-30T15:26:03;29.60;71.30
21608;DHT22;10966;51.076;3.782;2022-07-30T15:28:29;28.80;71.00
21608;DHT22;10966;51.076;3.782;2022-07-30T15:30:54;28.70;72.80
21608;DHT22;10966;51.076;3.782;2022-07-30T15:33:20;29.10;72.30
21608;DHT22;10966;51.076;3.782;2022-07-30T15:35:46;29.50;71.30
21608;DHT22;10966;51.076;3.782;2022-07-30T15:38:12;29.70;71.10
21608;DHT22;10966;51.076;3.782;2022-07-30T15:40:38;30.00;70.70
21608;DHT22;10966;51.076;3.782;2022-07-30T15:43:04;30.30;70.10
21608;DHT22;10966;51.076;3.782;2022-07-30T15:45:29;30.50;71.10
21608;DHT22;10966;51.076;3.782;2022-07-30T15:47:56;30.90;69.90
21608;DHT22;10966;51.076;3.782;2022-07-30T15:50:22;30.80;69.30
21608;DHT22;10966;51.076;3.782;2022-07-30T15:52:48;31.10;67.80
21608;DHT22;10966;51.076;3.782;2022-07-30T15:55:15;31.10;68.60
21608;DHT22;10966;51.076;3.782;2022-07-30T15:57:42;31.20;68.40
21608;DHT22;10966;51.076;3.782;2022-07-30T16:00:08;30.50;69.30
21608;DHT22;10966;51.076;3.782;2022-07-30T16:02:35;31.00;68.60
21608;DHT22;10966;51.076;3.782;2022-07-30T16:05:01;31.70;68.70
21608;DHT22;10966;51.076;3.782;2022-07-30T16:07:27;32.30;66.30